Time;durP1;ratioP1;P1;durP2;ratioP2;P2;SDS_P1;SDS_P2;PMS_P1;PMS_P2;Temp;Humidity;BMP_temperature;BMP_pressure;BME280_temperature;BME280_humidity;BME280_pressure;Samples;Min_cycle;Max_cycle;Signal;HPM_P1;HPM_P2
2021/06/17 00:00:57;;;;;;;16.60;14.93;;;;;;;22.87;63.33;100017.16;5081638;28;20538;-73
2021/06/17 00:03:23;;;;;;;15.50;14.20;;;;;;;22.74;63.56;100016.25;5082649;28;20591;-73
2021/06/17 00:05:50;;;;;;;15.77;14.10;;;;;;;22.80;63.43;100021.88;5081440;28;20488;-73
2021/06/17 00:08:17;;;;;;;15.43;13.97;;;;;;;22.62;63.91;100018.06;5082776;28;20457;-73
2021/06/17 00:10:45;;;;;;;15.17;13.90;;;;;;;22.71;63.64;100016.69;5081124;28;20523;-73
2021/06/17 00:13:15;;;;;;;15.37;13.90;;;;;;;22.72;63.67;100009.34;5082324;28;20950;-73
2021/06/17 00:15:43;;;;;;;15.60;14.00;;;;;;;22.77;63.37;100009.50;5081808;28;20496;-73
2021/06/17 00:18:11;;;;;;;15.03;13.73;;;;;;;22.67;63.43;100014.66;5081297;28;20465;-73
2021/06/17 00:20:38;;;;;;;13.87;12.73;;;;;;;22.59;63.73;100001.34;5081735;28;20529;-73
2021/06/17 00:23:05;;;;;;;13.90;12.80;;;;;;;22.55;63.60;100001.78;5081608;28;20496;-73
2021/06/17 00:25:32;;;;;;;18.03;14.13;;;;;;;22.55;63.89;100000.94;5080653;28;21057;-73
2021/06/17 00:27:59;;;;;;;15.43;13.53;;;;;;;22.62;63.48;100003.59;5082027;28;20448;-74
2021/06/17 00:30:28;;;;;;;14.07;12.77;;;;;;;22.50;63.89;100003.53;5060818;28;20457;-74
2021/06/17 00:32:55;;;;;;;16.17;14.60;;;;;;;22.42;64.15;100001.91;5075585;28;20432;-73
2021/06/17 00:35:24;;;;;;;14.97;13.63;;;;;;;22.44;64.13;99999.78;5080428;28;20500;-74
2021/06/17 00:37:51;;;;;;;16.30;14.70;;;;;;;22.43;63.94;100009.03;5081797;28;20481;-74
2021/06/17 00:40:18;;;;;;;16.07;14.67;;;;;;;22.52;63.67;100002.22;5079383;28;20488;-73
2021/06/17 00:42:46;;;;;;;15.87;14.23;;;;;;;22.42;63.99;100003.81;5081124;28;20499;-73
2021/06/17 00:45:16;;;;;;;15.37;13.80;;;;;;;22.45;63.67;100001.47;5080285;28;20461;-73
2021/06/17 00:47:44;;;;;;;14.70;13.37;;;;;;;22.31;63.96;100003.50;5071848;28;20448;-73
2021/06/17 00:50:12;;;;;;;14.67;13.03;;;;;;;22.30;64.27;100003.72;5080948;28;20452;-74
2021/06/17 00:52:39;;;;;;;17.87;14.47;;;;;;;22.31;64.01;100000.75;5080925;28;20877;-74
2021/06/17 00:55:07;;;;;;;16.83;14.10;;;;;;;22.36;63.76;99998.19;5080189;28;20511;-73
2021/06/17 00:57:33;;;;;;;15.80;14.10;;;;;;;22.40;63.89;100001.31;5081740;28;20440;-73
2021/06/17 01:00:00;;;;;;;15.13;13.83;;;;;;;22.50;63.54;99998.09;5081984;28;20468;-73
2021/06/17 01:02:26;;;;;;;15.60;14.10;;;;;;;22.42;63.62;99992.91;5080297;28;20540;-73
2021/06/17 01:04:55;;;;;;;15.00;13.60;;;;;;;22.45;63.48;99996.03;5080171;28;20751;-73
2021/06/17 01:07:28;;;;;;;14.80;13.23;;;;;;;22.44;63.62;99993.50;5080285;28;20476;-73
2021/06/17 01:10:05;;;;;;;16.00;14.40;;;;;;;22.36;63.67;99994.66;5079612;28;20860;-73
2021/06/17 01:12:39;;;;;;;16.03;14.50;;;;;;;22.22;64.33;99993.06;5079929;28;20468;-74
2021/06/17 01:15:08;;;;;;;14.90;13.60;;;;;;;22.24;64.24;99993.66;5080851;28;20461;-74
2021/06/17 01:17:38;;;;;;;16.27;14.90;;;;;;;22.02;65.02;99999.53;5080576;28;20475;-73
2021/06/17 01:20:11;;;;;;;15.03;13.60;;;;;;;22.05;64.91;100001.81;5080777;28;20846;-74
2021/06/17 01:22:47;;;;;;;16.30;14.90;;;;;;;22.03;64.88;100000.34;5080877;28;20496;-74
2021/06/17 01:25:26;;;;;;;14.80;13.50;;;;;;;22.07;64.86;99991.53;5079369;28;20463;-73
2021/06/17 01:28:06;;;;;;;15.50;13.90;;;;;;;21.99;65.04;99989.94;5080050;28;20479;-73
2021/06/17 01:30:35;;;;;;;16.17;14.70;;;;;;;21.90;65.33;99987.69;5080772;28;20471;-73
2021/06/17 01:33:03;;;;;;;16.43;14.67;;;;;;;22.02;64.86;99990.53;5080323;28;20487;-73
2021/06/17 01:35:34;;;;;;;16.97;15.17;;;;;;;21.93;65.12;99988.06;5080605;28;20487;-73
2021/06/17 01:38:03;;;;;;;16.27;14.80;;;;;;;21.90;65.19;99991.22;5080101;28;20452;-73
2021/06/17 01:40:31;;;;;;;14.60;13.17;;;;;;;21.98;65.06;99987.41;5079097;28;20488;-73
2021/06/17 01:42:59;;;;;;;15.87;14.23;;;;;;;22.10;64.62;99984.78;5080348;28;20523;-73
2021/06/17 01:45:28;;;;;;;15.30;13.90;;;;;;;21.96;65.04;99984.91;5079429;28;20475;-74
2021/06/17 01:47:55;;;;;;;16.00;14.60;;;;;;;21.91;65.27;99979.31;5080513;28;20508;-73
2021/06/17 01:50:25;;;;;;;16.07;13.90;;;;;;;21.81;65.38;99968.91;5079648;28;20479;-74
2021/06/17 01:52:53;;;;;;;16.07;14.40;;;;;;;21.71;66.11;99968.56;5080793;28;20482;-73
2021/06/17 01:55:21;;;;;;;16.17;14.47;;;;;;;21.73;65.62;99974.59;5079444;28;20484;-74
2021/06/17 01:57:48;;;;;;;16.00;14.40;;;;;;;21.81;65.72;99973.53;5080945;28;21017;-73
2021/06/17 02:00:16;;;;;;;17.17;15.37;;;;;;;21.76;65.41;99968.72;5080357;28;20918;-73
2021/06/17 02:02:46;;;;;;;16.53;14.37;;;;;;;21.79;65.59;99964.75;5079762;28;20567;-73
2021/06/17 02:05:13;;;;;;;16.00;14.37;;;;;;;21.75;65.56;99964.34;5079663;28;20452;-73
2021/06/17 02:07:43;;;;;;;18.53;15.10;;;;;;;21.73;65.77;99966.44;5080990;28;20432;-73
2021/06/17 02:10:11;;;;;;;17.30;15.90;;;;;;;21.67;66.07;99967.34;5078796;28;21007;-73
2021/06/17 02:12:39;;;;;;;16.77;15.07;;;;;;;21.57;66.20;99962.38;5080602;28;20483;-73
2021/06/17 02:15:07;;;;;;;15.33;14.03;;;;;;;21.56;66.18;99957.16;5079727;28;20496;-73
2021/06/17 02:17:34;;;;;;;15.57;13.93;;;;;;;21.60;66.06;99955.69;5080618;28;20524;-74
2021/06/17 02:20:03;;;;;;;17.00;15.50;;;;;;;21.61;66.14;99957.31;5080596;28;20495;-74
2021/06/17 02:22:29;;;;;;;16.60;15.10;;;;;;;21.63;66.08;99952.53;5083228;28;20555;-72
2021/06/17 02:24:57;;;;;;;17.93;16.13;;;;;;;21.55;66.27;99958.22;5081554;28;20832;-73
2021/06/17 02:27:28;;;;;;;17.03;15.50;;;;;;;21.53;66.43;99954.91;5082800;28;20514;-73
2021/06/17 02:29:57;;;;;;;16.87;15.07;;;;;;;21.58;65.46;99963.22;5084410;28;20985;-73
2021/06/17 02:32:25;;;;;;;16.77;15.17;;;;;;;21.65;65.33;99958.56;5083037;28;20480;-73
2021/06/17 02:34:53;;;;;;;17.03;14.80;;;;;;;21.70;65.45;99960.63;5083095;28;20490;-73
2021/06/17 02:37:22;;;;;;;19.50;16.17;;;;;;;21.62;65.18;99965.28;5082952;28;20522;-74
2021/06/17 02:39:50;;;;;;;16.23;14.90;;;;;;;21.61;65.32;99957.31;5082907;28;20468;-74
2021/06/17 02:42:19;;;;;;;16.40;15.00;;;;;;;21.54;65.66;99954.66;5082896;28;20533;-73
2021/06/17 02:44:48;;;;;;;16.67;15.17;;;;;;;21.50;65.62;99961.59;5083618;28;20969;-73
2021/06/17 02:47:15;;;;;;;17.40;15.90;;;;;;;21.49;65.74;99959.09;5082492;28;20508;-73
2021/06/17 02:49:43;;;;;;;16.43;14.83;;;;;;;21.45;66.25;99955.94;5083549;28;21016;-73
2021/06/17 02:52:10;;;;;;;16.13;14.73;;;;;;;21.47;66.17;99959.31;5083385;28;20464;-73
2021/06/17 02:54:38;;;;;;;17.33;15.67;;;;;;;21.48;66.29;99957.44;5083020;28;20476;-73
2021/06/17 02:57:10;;;;;;;17.97;16.07;;;;;;;21.48;65.90;99960.97;5083246;28;20558;-73
2021/06/17 03:00:03;;;;;;;16.33;14.70;;;;;;;21.43;66.15;99956.16;5084071;28;20444;-73
2021/06/17 03:02:37;;;;;;;17.47;15.67;;;;;;;21.19;67.48;99960.47;5083307;28;20492;-73
2021/06/17 03:05:08;;;;;;;17.50;16.00;;;;;;;21.18;67.55;99952.53;5083356;28;20938;-73
2021/06/17 03:07:38;;;;;;;17.93;16.10;;;;;;;21.26;67.41;99949.56;5083552;28;20812;-73
2021/06/17 03:10:10;;;;;;;18.53;16.83;;;;;;;21.29;67.08;99951.88;5082324;28;20447;-73
2021/06/17 03:12:38;;;;;;;17.70;16.20;;;;;;;21.32;67.06;99958.75;5082316;28;20464;-73
2021/06/17 03:15:08;;;;;;;19.90;15.83;;;;;;;21.38;66.56;99957.88;5082105;28;20514;-73
2021/06/17 03:17:36;;;;;;;18.43;16.73;;;;;;;21.44;66.65;99957.03;5063494;28;20509;-73
2021/06/17 03:20:07;;;;;;;16.80;14.87;;;;;;;21.41;66.68;99961.00;5078639;28;20448;-73
2021/06/17 03:22:34;;;;;;;17.33;15.67;;;;;;;21.48;66.38;99960.16;5082062;28;20524;-73
2021/06/17 03:25:05;;;;;;;17.70;16.07;;;;;;;21.71;65.89;99963.13;5081164;28;20487;-73
2021/06/17 03:27:33;;;;;;;17.43;15.70;;;;;;;22.27;63.79;99958.72;5082124;28;20452;-73
2021/06/17 03:30:02;;;;;;;17.07;15.43;;;;;;;22.82;61.91;99965.22;5082782;28;20473;-73
2021/06/17 03:32:29;;;;;;;16.53;15.07;;;;;;;23.54;59.11;99961.75;5082054;28;20567;-73
2021/06/17 03:34:57;;;;;;;15.23;13.93;;;;;;;23.87;57.76;99964.00;5081982;28;20484;-73
2021/06/17 03:37:26;;;;;;;16.53;14.93;;;;;;;24.17;56.91;99968.53;5082062;28;20496;-73
2021/06/17 03:39:54;;;;;;;14.77;13.43;;;;;;;24.71;55.44;99971.97;5081422;28;20460;-73
2021/06/17 03:42:21;;;;;;;14.50;13.00;;;;;;;25.41;53.62;99961.88;5081771;28;20510;-73
2021/06/17 03:44:49;;;;;;;16.63;13.43;;;;;;;26.06;51.74;99956.97;5082944;28;20512;-73
2021/06/17 03:47:18;;;;;;;13.30;12.03;;;;;;;26.35;50.46;99954.09;5081707;28;20499;-73
2021/06/17 03:49:45;;;;;;;14.20;13.00;;;;;;;26.71;49.78;99957.38;5083180;28;20575;-73
2021/06/17 03:52:14;;;;;;;13.00;11.77;;;;;;;27.37;47.78;99954.56;5082213;28;20476;-73
2021/06/17 03:54:42;;;;;;;12.30;11.17;;;;;;;27.37;47.54;99954.56;5082222;28;20896;-73
2021/06/17 03:57:09;;;;;;;12.90;11.70;;;;;;;27.33;47.78;99954.28;5081888;28;20500;-74
2021/06/17 03:59:39;;;;;;;13.10;11.90;;;;;;;27.62;47.29;99951.25;5082530;28;20476;-73
2021/06/17 04:02:07;;;;;;;13.50;12.13;;;;;;;28.21;45.29;99947.63;5077587;28;20536;-73
2021/06/17 04:04:34;;;;;;;12.73;11.47;;;;;;;28.36;45.12;99950.44;5082557;28;20504;-74
2021/06/17 04:07:03;;;;;;;12.77;11.63;;;;;;;28.73;44.15;99951.47;5081831;28;20936;-74
2021/06/17 04:09:31;;;;;;;13.27;12.03;;;;;;;29.08;43.42;99952.72;5081757;28;20594;-73
2021/06/17 04:11:59;;;;;;;13.40;10.40;;;;;;;29.53;42.55;99962.22;5080139;28;20468;-74
2021/06/17 04:14:27;;;;;;;12.97;11.67;;;;;;;30.41;40.77;99958.34;5081105;28;20456;-74
2021/06/17 04:16:55;;;;;;;11.33;10.30;;;;;;;31.28;38.52;99961.84;5080757;28;20476;-74
2021/06/17 04:19:26;;;;;;;11.33;10.17;;;;;;;31.79;37.54;99957.94;5082036;28;20456;-74
2021/06/17 04:21:55;;;;;;;11.03;10.00;;;;;;;32.47;36.52;99957.00;5081453;28;20487;-74
2021/06/17 04:24:24;;;;;;;11.00;10.00;;;;;;;32.50;35.72;99959.19;5078652;28;20480;-74
2021/06/17 04:26:51;;;;;;;12.93;9.70;;;;;;;32.72;35.60;99966.16;5077198;28;20475;-74
2021/06/17 04:29:21;;;;;;;11.30;9.50;;;;;;;32.95;34.84;99970.00;5080775;28;20468;-74
2021/06/17 04:31:49;;;;;;;10.53;9.53;;;;;;;33.23;34.91;99973.81;5080188;28;20484;-74
2021/06/17 04:34:16;;;;;;;11.90;10.80;;;;;;;32.23;36.08;99966.09;5078388;28;20455;-74
2021/06/17 04:36:44;;;;;;;11.27;9.87;;;;;;;32.88;35.32;99962.09;5074411;28;20483;-73
2021/06/17 04:39:11;;;;;;;9.90;8.90;;;;;;;33.46;34.47;99965.72;5069656;28;20561;-73
2021/06/17 04:41:38;;;;;;;10.10;9.30;;;;;;;33.79;33.49;99968.56;5074445;28;20514;-73
2021/06/17 04:44:06;;;;;;;10.70;9.80;;;;;;;34.41;32.69;99960.81;5065607;28;20582;-73
2021/06/17 04:46:34;;;;;;;10.40;9.40;;;;;;;34.78;31.71;99969.28;5078917;28;20487;-74
2021/06/17 04:49:02;;;;;;;10.57;9.63;;;;;;;34.80;31.76;99972.56;5067003;28;20538;-74
2021/06/17 04:51:30;;;;;;;9.53;8.70;;;;;;;35.18;31.27;99977.84;5076795;28;20480;-75
2021/06/17 04:53:58;;;;;;;10.43;9.40;;;;;;;35.99;29.90;99974.28;5080281;28;20452;-74
2021/06/17 04:56:26;;;;;;;10.10;9.20;;;;;;;36.59;28.94;99972.13;5079329;28;20477;-75
2021/06/17 04:58:52;;;;;;;10.33;8.53;;;;;;;36.03;29.19;99980.84;5080746;28;20551;-75
2021/06/17 05:01:19;;;;;;;9.50;8.60;;;;;;;35.29;30.82;99976.50;5080222;28;20499;-75
2021/06/17 05:03:46;;;;;;;10.10;9.20;;;;;;;35.86;30.17;99980.75;5071686;28;20656;-73
2021/06/17 05:06:15;;;;;;;10.10;8.83;;;;;;;36.24;29.25;99978.38;5079243;28;20894;-74
2021/06/17 05:11:27;;;;;;;8.43;7.73;;;;;;;37.49;27.85;99980.88;5078479;28;20518;-74
2021/06/17 05:13:54;;;;;;;8.20;7.50;;;;;;;38.21;26.74;99986.06;5064238;28;20489;-74
2021/06/17 05:16:21;;;;;;;10.27;8.27;;;;;;;38.18;26.75;99983.94;5071839;28;20492;-73
2021/06/17 05:18:48;;;;;;;10.50;7.90;;;;;;;37.91;26.95;99985.94;5070597;28;20448;-74
2021/06/17 05:21:15;;;;;;;9.87;8.90;;;;;;;38.14;26.61;99986.59;5080164;28;20506;-74
2021/06/17 05:23:42;;;;;;;11.00;9.47;;;;;;;38.45;26.31;99993.84;5075284;28;20508;-74
2021/06/17 05:26:09;;;;;;;8.70;7.87;;;;;;;38.06;26.36;99988.22;5071301;28;20476;-74
2021/06/17 05:28:37;;;;;;;9.17;8.30;;;;;;;37.90;26.61;99989.06;5074111;28;20444;-74
2021/06/17 05:31:07;;;;;;;9.43;8.23;;;;;;;37.11;27.73;99980.66;5067427;28;20511;-74
2021/06/17 05:33:34;;;;;;;8.80;8.10;;;;;;;37.12;28.38;99985.09;5079603;28;20508;-72
2021/06/17 05:36:02;;;;;;;8.63;7.93;;;;;;;36.58;29.05;99982.47;5075641;28;20473;-73
2021/06/17 05:38:30;;;;;;;10.17;9.27;;;;;;;36.71;29.06;99978.75;5072021;28;20895;-73
2021/06/17 05:40:57;;;;;;;8.67;7.87;;;;;;;36.82;28.64;99984.03;5078721;28;20464;-74
2021/06/17 05:43:23;;;;;;;8.87;8.07;;;;;;;36.96;28.41;99987.50;5079641;28;20494;-73
2021/06/17 05:45:52;;;;;;;8.80;7.37;;;;;;;37.78;27.42;99993.34;5077364;28;20472;-73
2021/06/17 05:48:18;;;;;;;8.63;7.73;;;;;;;37.22;28.22;99997.91;5074892;28;20515;-72
2021/06/17 05:50:45;;;;;;;9.43;8.53;;;;;;;35.81;30.34;99998.38;5071771;28;20473;-73
2021/06/17 05:53:12;;;;;;;9.63;8.63;;;;;;;36.15;29.92;99994.19;5071274;28;20449;-72
2021/06/17 05:55:38;;;;;;;9.40;8.23;;;;;;;36.70;29.74;99990.22;5081653;28;20475;-73
2021/06/17 05:58:05;;;;;;;10.07;8.93;;;;;;;35.21;31.91;100003.09;5074628;28;20484;-73
2021/06/17 06:00:32;;;;;;;8.90;8.13;;;;;;;37.08;29.00;100007.22;5075179;28;20472;-72
2021/06/17 06:03:00;;;;;;;9.17;8.23;;;;;;;37.31;28.63;99999.56;5072653;28;20491;-72
2021/06/17 06:05:28;;;;;;;8.07;7.37;;;;;;;38.24;27.67;100016.09;5078878;28;20552;-72
2021/06/17 06:07:59;;;;;;;8.83;7.93;;;;;;;39.19;26.18;100014.06;5080519;28;20459;-72
2021/06/17 06:10:27;;;;;;;9.67;8.67;;;;;;;35.62;30.92;100016.06;5068307;28;20891;-72
2021/06/17 06:12:55;;;;;;;9.03;8.23;;;;;;;35.62;31.36;100009.66;5087122;28;20811;-72
2021/06/17 06:15:24;;;;;;;10.27;9.23;;;;;;;34.12;34.08;100003.47;5079578;28;20496;-71
2021/06/17 06:17:52;;;;;;;9.37;8.43;;;;;;;35.82;30.96;100003.63;5082095;28;20535;-71
2021/06/17 06:20:23;;;;;;;9.83;8.87;;;;;;;36.23;30.02;100007.34;5046821;28;20475;-72
2021/06/17 06:22:51;;;;;;;8.70;8.00;;;;;;;35.99;30.57;100013.25;5060998;28;21506;-72
2021/06/17 06:25:18;;;;;;;10.53;8.87;;;;;;;35.72;30.99;100008.63;5079855;28;20510;-73
2021/06/17 06:27:44;;;;;;;11.80;8.90;;;;;;;34.99;32.70;100016.88;5081397;28;20590;-74
2021/06/17 06:30:12;;;;;;;8.93;7.53;;;;;;;37.27;29.19;100020.06;5079899;28;20449;-72
2021/06/17 06:32:39;;;;;;;8.90;8.20;;;;;;;38.32;27.64;100023.66;5081061;28;20492;-72
2021/06/17 06:35:07;;;;;;;8.60;7.83;;;;;;;37.05;28.51;100016.22;5082036;28;20492;-71
2021/06/17 06:37:35;;;;;;;8.93;7.90;;;;;;;36.24;31.04;100020.13;5082705;28;21004;-72
2021/06/17 06:40:03;;;;;;;10.93;8.83;;;;;;;37.32;29.55;100019.91;5081295;28;20480;-72
2021/06/17 06:42:29;;;;;;;10.70;7.73;;;;;;;36.17;30.58;100016.94;5082891;28;20501;-72
2021/06/17 06:44:56;;;;;;;12.17;7.50;;;;;;;37.52;29.38;100020.41;5082522;28;20537;-72
2021/06/17 06:47:23;;;;;;;13.20;8.70;;;;;;;36.55;30.77;100013.75;5082471;28;20523;-73
2021/06/17 06:49:50;;;;;;;9.57;8.37;;;;;;;38.08;28.54;100014.97;5070574;28;20540;-73
2021/06/17 06:52:17;;;;;;;8.13;7.37;;;;;;;37.64;29.00;100024.22;5061564;28;20504;-72
2021/06/17 06:54:45;;;;;;;9.37;8.53;;;;;;;36.34;31.04;100019.03;5077184;28;20463;-73
2021/06/17 06:57:11;;;;;;;8.53;6.90;;;;;;;38.65;27.58;100025.03;5081985;28;20541;-73
2021/06/17 06:59:38;;;;;;;8.60;7.77;;;;;;;37.97;28.57;100015.31;5081034;28;20428;-72
2021/06/17 07:02:05;;;;;;;8.90;7.13;;;;;;;39.83;26.04;100017.69;5080614;28;20540;-72
2021/06/17 07:04:33;;;;;;;10.00;7.70;;;;;;;39.96;25.86;100010.19;5082115;28;20476;-71
2021/06/17 07:07:00;;;;;;;7.80;7.10;;;;;;;40.10;25.57;100019.09;5079494;28;20472;-71
2021/06/17 07:09:27;;;;;;;10.60;7.20;;;;;;;39.72;25.98;100023.72;5081484;28;20457;-72
2021/06/17 07:11:55;;;;;;;8.20;7.20;;;;;;;38.87;27.72;100026.72;5080822;28;20480;-72
2021/06/17 07:14:22;;;;;;;7.77;7.00;;;;;;;39.78;26.74;100021.53;5081393;28;20482;-72
2021/06/17 07:16:48;;;;;;;7.67;6.97;;;;;;;40.38;25.17;100021.28;5081733;28;20480;-71
2021/06/17 07:19:16;;;;;;;8.83;7.10;;;;;;;40.08;25.45;100013.81;5080943;28;20440;-72
2021/06/17 07:21:42;;;;;;;8.33;6.73;;;;;;;40.38;25.06;100019.31;5081940;28;20521;-72
2021/06/17 07:24:10;;;;;;;8.10;7.40;;;;;;;39.67;26.05;100014.69;5078882;28;20879;-72
2021/06/17 07:26:37;;;;;;;8.00;6.50;;;;;;;40.79;24.94;100019.44;5081110;28;20487;-72
2021/06/17 07:29:05;;;;;;;7.20;6.40;;;;;;;41.35;24.01;100018.84;5082509;28;20464;-72
2021/06/17 07:31:32;;;;;;;7.60;6.43;;;;;;;40.83;23.89;100021.25;5080129;28;20954;-72
2021/06/17 07:33:59;;;;;;;7.53;6.83;;;;;;;41.24;23.55;100024.13;5082373;28;20453;-72
2021/06/17 07:36:26;;;;;;;6.90;6.20;;;;;;;41.88;23.36;100013.19;5080556;28;20479;-72
2021/06/17 07:38:53;;;;;;;7.70;6.87;;;;;;;41.52;23.81;100017.75;5079852;28;20494;-72
2021/06/17 07:41:20;;;;;;;7.23;6.53;;;;;;;41.73;23.71;100001.53;5080144;28;20472;-73
2021/06/17 07:43:46;;;;;;;6.57;6.07;;;;;;;40.79;24.65;100003.44;5081578;28;20449;-73
2021/06/17 07:46:14;;;;;;;6.63;5.93;;;;;;;40.05;25.31;99996.91;5080012;28;20480;-72
2021/06/17 07:48:41;;;;;;;7.90;7.10;;;;;;;39.89;25.75;99997.53;5081746;28;20868;-73
2021/06/17 07:51:09;;;;;;;7.33;6.80;;;;;;;39.35;26.22;99998.31;5081361;28;20878;-72
2021/06/17 07:53:35;;;;;;;7.00;6.40;;;;;;;39.95;26.18;99998.19;5081034;28;20436;-72
2021/06/17 07:56:03;;;;;;;7.30;6.60;;;;;;;39.34;26.18;99991.09;5080963;28;20468;-73
2021/06/17 07:58:30;;;;;;;9.37;6.90;;;;;;;39.36;26.22;99987.97;5081279;28;20459;-72
2021/06/17 08:00:56;;;;;;;8.13;7.03;;;;;;;40.08;24.53;99997.03;5080031;28;20472;-72
2021/06/17 08:03:24;;;;;;;6.80;6.30;;;;;;;38.15;26.51;99984.59;5080587;28;20494;-71
2021/06/17 08:05:52;;;;;;;9.17;6.67;;;;;;;38.16;27.50;99981.50;5080753;28;20484;-72
2021/06/17 08:08:18;;;;;;;6.87;6.37;;;;;;;37.74;27.49;99978.41;5079685;28;20452;-72
2021/06/17 08:10:45;;;;;;;9.33;6.27;;;;;;;39.51;26.40;99980.94;5080627;28;20483;-72
2021/06/17 08:13:12;;;;;;;7.20;6.33;;;;;;;40.31;24.22;99991.00;5081569;28;20456;-72
2021/06/17 08:15:38;;;;;;;7.77;7.00;;;;;;;39.51;26.13;99997.72;5079668;28;20475;-72
2021/06/17 08:18:06;;;;;;;8.07;6.30;;;;;;;39.26;26.30;99982.78;5080684;28;20490;-71
2021/06/17 08:20:34;;;;;;;7.07;6.37;;;;;;;40.07;25.61;99983.41;5096111;28;20494;-72
2021/06/17 08:23:01;;;;;;;6.70;6.10;;;;;;;41.08;24.71;99981.94;5083594;28;20502;-72
2021/06/17 08:25:27;;;;;;;6.83;6.03;;;;;;;41.10;24.09;99976.78;5079312;28;20958;-72
2021/06/17 08:27:56;;;;;;;6.63;5.33;;;;;;;40.64;25.41;99974.16;5080614;28;20452;-72
2021/06/17 08:30:23;;;;;;;5.50;4.83;;;;;;;41.33;23.67;99970.69;5079815;28;20456;-72
2021/06/17 08:32:50;;;;;;;6.53;5.93;;;;;;;40.42;24.20;99975.41;5080787;28;20429;-72
2021/06/17 08:35:17;;;;;;;6.40;5.70;;;;;;;39.90;24.99;99970.38;5079825;28;20449;-71
2021/06/17 08:37:45;;;;;;;6.10;5.60;;;;;;;40.45;24.72;99963.53;5080388;28;21050;-72
2021/06/17 08:40:12;;;;;;;6.70;6.10;;;;;;;40.13;25.09;99967.19;5078493;28;20452;-72
2021/06/17 08:42:39;;;;;;;6.07;5.67;;;;;;;38.98;26.60;99953.34;5080603;28;20993;-71
2021/06/17 08:45:09;;;;;;;6.53;5.90;;;;;;;40.57;24.93;99953.47;5079474;28;21767;-72
2021/06/17 08:47:37;;;;;;;9.03;6.00;;;;;;;37.83;28.65;99951.34;5080615;28;20460;-73
2021/06/17 08:50:05;;;;;;;8.83;5.80;;;;;;;39.06;25.34;99950.84;5080292;28;21007;-72
2021/06/17 08:52:34;;;;;;;7.30;6.00;;;;;;;38.12;26.37;99951.78;5079425;28;20471;-72
2021/06/17 08:55:12;;;;;;;6.37;5.77;;;;;;;38.34;26.71;99956.28;5079771;28;20487;-71
2021/06/17 08:57:39;;;;;;;8.20;6.83;;;;;;;37.94;27.13;99956.56;5079802;28;20449;-72
2021/06/17 09:00:31;;;;;;;6.47;5.67;;;;;;;38.80;26.78;99963.81;5079499;28;20467;-73
2021/06/17 09:03:00;;;;;;;6.17;5.67;;;;;;;37.85;28.54;99962.16;5072271;28;20451;-72
2021/06/17 09:05:27;;;;;;;5.80;5.17;;;;;;;39.94;24.30;99959.31;5069980;28;20482;-72
2021/06/17 09:07:54;;;;;;;4.30;3.90;;;;;;;37.88;21.60;99967.06;5080339;28;20433;-73
2021/06/17 09:10:23;;;;;;;4.77;3.70;;;;;;;36.93;22.05;99954.72;5078949;28;20468;-71
2021/06/17 09:12:52;;;;;;;5.70;3.97;;;;;;;37.40;21.12;99954.16;5080604;28;20488;-71
2021/06/17 09:15:32;;;;;;;5.20;3.97;;;;;;;36.29;22.90;99947.63;5079481;28;20471;-72
2021/06/17 09:18:26;;;;;;;5.20;4.10;;;;;;;38.24;20.46;99949.91;5081522;28;20441;-72
2021/06/17 09:20:56;;;;;;;3.73;3.33;;;;;;;38.80;20.06;99946.22;5078189;28;20487;-71
2021/06/17 09:23:29;;;;;;;6.13;4.10;;;;;;;38.37;21.53;99944.47;5083958;28;20470;-71
2021/06/17 09:25:58;;;;;;;5.23;3.67;;;;;;;38.09;21.27;99938.44;5079038;28;20606;-72
2021/06/17 09:28:27;;;;;;;6.57;3.80;;;;;;;37.38;21.04;99950.84;5079912;28;20854;-72
2021/06/17 09:30:54;;;;;;;4.27;3.87;;;;;;;36.68;22.16;99950.69;5078703;28;20472;-72
2021/06/17 09:33:25;;;;;;;3.90;3.57;;;;;;;36.90;21.02;99955.38;5079561;28;20464;-72
2021/06/17 09:35:54;;;;;;;4.43;3.77;;;;;;;38.41;20.95;99946.22;5078972;28;21195;-72
2021/06/17 09:38:21;;;;;;;5.97;3.90;;;;;;;38.24;20.13;99940.72;5079469;28;20479;-72
2021/06/17 09:40:50;;;;;;;4.93;3.60;;;;;;;39.40;20.09;99940.53;5076755;28;20460;-72
2021/06/17 09:43:23;;;;;;;9.77;4.17;;;;;;;36.79;21.21;99938.16;5080321;28;20471;-71
2021/06/17 09:45:56;;;;;;;3.87;3.57;;;;;;;36.09;22.72;99945.34;5078107;28;20472;-72
2021/06/17 09:48:33;;;;;;;4.20;3.80;;;;;;;37.32;22.13;99936.25;5080290;28;20476;-72
2021/06/17 09:51:00;;;;;;;3.90;3.60;;;;;;;36.63;22.27;99943.34;5061829;28;20828;-72
2021/06/17 09:53:28;;;;;;;6.40;3.87;;;;;;;37.20;21.16;99938.88;5078876;28;20547;-72
2021/06/17 09:55:55;;;;;;;3.80;3.40;;;;;;;36.30;21.10;99929.78;5078573;28;20530;-72
2021/06/17 09:58:41;;;;;;;5.03;3.83;;;;;;;38.41;19.81;99934.25;5079211;28;20459;-71
2021/06/17 10:01:13;;;;;;;4.57;3.27;;;;;;;37.23;20.77;99925.09;5077829;28;20464;-72
2021/06/17 10:03:41;;;;;;;4.30;3.43;;;;;;;37.11;20.79;99936.06;5080214;28;20435;-72
2021/06/17 10:06:18;;;;;;;6.97;3.40;;;;;;;36.92;21.12;99928.00;5078431;28;20503;-72
2021/06/17 10:08:45;;;;;;;5.40;3.50;;;;;;;36.59;21.25;99922.81;5078592;28;20467;-72
2021/06/17 10:11:12;;;;;;;5.70;3.20;;;;;;;36.94;21.25;99936.84;5078459;28;21004;-72
2021/06/17 10:13:40;;;;;;;3.53;3.23;;;;;;;35.45;22.54;99926.91;5080156;28;20456;-72
2021/06/17 10:16:07;;;;;;;4.87;3.40;;;;;;;36.85;21.80;99916.53;5078269;28;20495;-72
2021/06/17 10:18:35;;;;;;;7.00;3.70;;;;;;;37.21;20.98;99913.47;5088712;28;20435;-73
2021/06/17 10:21:02;;;;;;;4.97;3.60;;;;;;;37.17;21.88;99917.19;5098822;28;20467;-72
2021/06/17 10:23:29;;;;;;;4.27;3.70;;;;;;;35.69;22.41;99915.47;5081873;28;20770;-72
2021/06/17 10:25:56;;;;;;;4.03;3.33;;;;;;;35.99;23.39;99925.03;5078560;28;20560;-72
2021/06/17 10:28:45;;;;;;;4.60;3.57;;;;;;;35.62;21.52;99910.38;5079395;28;20461;-71
2021/06/17 10:31:12;;;;;;;5.30;3.07;;;;;;;35.93;20.88;99925.47;5077573;28;20476;-71
2021/06/17 10:33:40;;;;;;;3.80;3.50;;;;;;;36.79;20.03;99910.28;5080108;28;20778;-72
2021/06/17 10:36:38;;;;;;;3.70;3.40;;;;;;;36.43;20.58;99913.28;5078970;28;20476;-72
2021/06/17 10:39:17;;;;;;;4.10;3.07;;;;;;;36.62;19.99;99904.66;5058529;28;20456;-72
2021/06/17 10:42:16;;;;;;;3.70;3.33;;;;;;;36.92;19.28;99905.72;5078515;28;20558;-72
2021/06/17 10:44:46;;;;;;;4.80;3.50;;;;;;;37.62;18.66;99922.44;5082860;28;20444;-72
2021/06/17 10:47:54;;;;;;;4.10;2.97;;;;;;;38.83;19.36;99916.78;5082345;28;20471;-72
2021/06/17 10:50:22;;;;;;;4.00;3.60;;;;;;;38.09;19.11;99914.16;5074543;28;20464;-72
2021/06/17 10:52:52;;;;;;;5.60;3.30;;;;;;;37.73;18.79;99909.81;5082744;28;20427;-73
2021/06/17 10:55:20;;;;;;;3.63;3.20;;;;;;;36.52;20.27;99903.78;5081529;28;20466;-72
2021/06/17 10:57:55;;;;;;;3.87;3.47;;;;;;;36.26;20.73;99912.06;5082842;28;20444;-73
2021/06/17 11:00:46;;;;;;;3.93;3.50;;;;;;;36.57;19.93;99895.28;5080986;28;20517;-73
2021/06/17 11:03:38;;;;;;;3.80;3.43;;;;;;;37.78;19.41;99909.66;5083346;28;20464;-71
2021/06/17 11:06:05;;;;;;;6.30;3.43;;;;;;;37.09;20.87;99916.88;5081571;28;20540;-72
2021/06/17 11:08:32;;;;;;;3.90;3.50;;;;;;;36.40;21.39;99905.56;5081426;28;20548;-72
2021/06/17 11:11:01;;;;;;;3.67;3.20;;;;;;;36.70;20.44;99906.66;5081716;28;20657;-73
2021/06/17 11:13:29;;;;;;;5.33;3.60;;;;;;;37.67;19.84;99909.19;5083360;28;20506;-72
2021/06/17 11:15:58;;;;;;;5.50;3.90;;;;;;;36.89;21.30;99904.41;5080902;28;20476;-72
2021/06/17 11:19:03;;;;;;;5.37;3.43;;;;;;;36.99;20.36;99902.44;5081784;28;20453;-72
2021/06/17 11:21:43;;;;;;;5.93;3.60;;;;;;;36.43;21.51;99914.09;5062811;28;20575;-72
2021/06/17 11:24:33;;;;;;;3.80;3.40;;;;;;;36.90;20.82;99903.25;5079076;28;20448;-72
2021/06/17 11:27:01;;;;;;;8.13;3.70;;;;;;;36.19;21.21;99892.19;5080809;28;20885;-71
2021/06/17 11:29:57;;;;;;;6.83;3.90;;;;;;;35.89;22.74;99903.03;5082099;28;20470;-72
2021/06/17 11:32:33;;;;;;;4.40;3.60;;;;;;;35.58;22.28;99898.22;5081571;28;20483;-72
2021/06/17 11:35:00;;;;;;;3.70;3.40;;;;;;;36.70;22.43;99904.72;5082039;28;20861;-71
2021/06/17 11:37:34;;;;;;;5.87;4.43;;;;;;;36.17;21.47;99894.50;5080686;28;20494;-72